createdAt,value
2022-12-01T00:00:24.094Z,67.22
2022-12-01T00:03:26.077Z,67.72
2022-12-01T00:06:27.514Z,67.28
2022-12-01T00:09:47.978Z,67.32
2022-12-01T00:12:49.661Z,67.41
2022-12-01T00:15:51.047Z,67.28
2022-12-01T00:18:53.489Z,66.38
2022-12-01T00:21:54.827Z,67.47
2022-12-01T00:24:56.292Z,67.49
2022-12-01T00:27:57.687Z,67.71
2022-12-01T00:31:00.069Z,67.24
2022-12-01T00:34:01.547Z,68.10
2022-12-01T00:37:02.953Z,67.64
2022-12-01T00:40:05.435Z,67.36
2022-12-01T00:43:06.802Z,67.69
2022-12-01T00:46:08.691Z,66.99
2022-12-01T00:49:13.290Z,67.86
2022-12-01T00:52:17.222Z,67.33
2022-12-01T00:55:18.789Z,66.84
2022-12-01T00:58:21.002Z,66.93
2022-12-01T01:01:22.821Z,67.05
2022-12-01T01:04:24.553Z,66.42
2022-12-01T01:07:26.052Z,66.03
2022-12-01T01:10:28.629Z,65.66
2022-12-01T01:13:30.483Z,66.66
2022-12-01T01:16:32.424Z,66.14
2022-12-01T01:19:33.839Z,66.12
2022-12-01T01:22:35.441Z,66.02
2022-12-01T01:25:36.894Z,66.12
2022-12-01T01:28:41.431Z,66.24
2022-12-01T01:31:42.841Z,66.24
2022-12-01T01:34:45.283Z,66.67
2022-12-01T01:37:46.576Z,67.47
2022-12-01T01:40:48.084Z,67.50
2022-12-01T01:43:58.165Z,66.10
2022-12-01T01:46:59.555Z,66.41
2022-12-01T01:50:06.473Z,66.70
2022-12-01T01:53:12.303Z,66.35
2022-12-01T01:56:13.750Z,65.13
2022-12-01T01:59:31.599Z,65.86
2022-12-01T02:02:40.369Z,66.01
2022-12-01T02:05:44.700Z,65.58
2022-12-01T02:08:46.091Z,65.45
2022-12-01T02:12:11.271Z,65.05
2022-12-01T02:15:25.572Z,65.19
2022-12-01T02:18:57.130Z,66.23
2022-12-01T02:22:18.288Z,65.85
2022-12-01T02:25:26.893Z,66.12
2022-12-01T02:29:00.070Z,65.10
2022-12-01T02:32:15.570Z,64.77
2022-12-01T02:35:23.101Z,64.21
2022-12-01T02:38:45.083Z,64.43
2022-12-01T02:41:52.658Z,64.55
2022-12-01T02:44:55.668Z,64.61
2022-12-01T02:48:01.913Z,64.22
2022-12-01T02:51:17.982Z,63.24
2022-12-01T02:54:21.518Z,62.82
2022-12-01T02:57:23.606Z,63.55
2022-12-01T03:00:25.087Z,63.25
2022-12-01T03:03:29.514Z,62.74
2022-12-01T03:06:55.736Z,62.63
2022-12-01T03:10:09.396Z,63.42
2022-12-01T03:13:26.598Z,61.34
2022-12-01T03:16:41.665Z,62.16
2022-12-01T03:19:56.033Z,62.17
2022-12-01T03:23:09.380Z,61.99
2022-12-01T03:26:16.636Z,61.83
2022-12-01T03:29:21.888Z,62.92
2022-12-01T03:32:49.911Z,62.84
2022-12-01T03:35:59.767Z,62.32
2022-12-01T03:39:06.981Z,62.83
2022-12-01T03:42:23.669Z,63.42
2022-12-01T03:45:40.038Z,63.97
2022-12-01T03:48:42.183Z,63.75
2022-12-01T03:51:56.179Z,64.09
2022-12-01T03:55:16.623Z,64.53
2022-12-01T03:58:28.363Z,65.70
2022-12-01T04:01:32.761Z,65.89
2022-12-01T04:04:34.356Z,65.26
2022-12-01T04:07:37.637Z,64.21
2022-12-01T04:10:39.118Z,64.27
2022-12-01T04:13:40.490Z,63.65
2022-12-01T04:16:41.867Z,64.57
2022-12-01T04:19:43.228Z,63.60
2022-12-01T04:22:45.113Z,63.30
2022-12-01T04:25:46.547Z,63.40
2022-12-01T04:28:48.638Z,63.76
2022-12-01T04:31:50.216Z,63.94
2022-12-01T04:34:51.712Z,63.83
2022-12-01T04:37:53.088Z,64.48
2022-12-01T04:40:54.458Z,64.21
2022-12-01T04:43:56.554Z,63.80
2022-12-01T04:46:58.033Z,63.40
2022-12-01T04:50:00.487Z,63.37
2022-12-01T04:53:01.815Z,62.83
2022-12-01T04:56:04.087Z,63.20
2022-12-01T04:59:05.505Z,62.92
2022-12-01T05:02:07.430Z,62.30
2022-12-01T05:05:10.214Z,63.32
2022-12-01T05:08:11.774Z,62.77
2022-12-01T05:11:14.622Z,63.09
2022-12-01T05:14:16.074Z,63.23
2022-12-01T05:17:17.519Z,61.87
2022-12-01T05:20:41.052Z,61.43
2022-12-01T05:23:42.470Z,61.37
2022-12-01T05:26:44.767Z,60.86
2022-12-01T05:29:46.434Z,61.47
2022-12-01T05:32:47.964Z,61.64
2022-12-01T05:35:49.985Z,61.76
2022-12-01T05:38:51.700Z,61.90
2022-12-01T05:41:53.859Z,61.00
2022-12-01T05:44:55.414Z,60.69
2022-12-01T05:47:58.175Z,60.97
2022-12-01T05:50:59.574Z,60.93
2022-12-01T05:54:01.311Z,61.51
2022-12-01T05:57:02.751Z,61.50
2022-12-01T06:00:06.136Z,62.09
2022-12-01T06:03:13.211Z,61.61
2022-12-01T06:06:14.669Z,62.48
2022-12-01T06:09:16.103Z,62.90
2022-12-01T06:12:18.199Z,62.13
2022-12-01T06:15:19.603Z,62.28
2022-12-01T06:18:20.980Z,62.65
2022-12-01T06:21:22.472Z,62.51
2022-12-01T06:24:24.059Z,62.40
2022-12-01T06:27:25.594Z,62.10
2022-12-01T06:30:27.051Z,62.13
2022-12-01T06:33:28.427Z,62.27
2022-12-01T06:36:29.821Z,62.34
2022-12-01T06:39:31.207Z,61.96
2022-12-01T06:42:32.800Z,62.33
2022-12-01T06:45:34.214Z,60.92
2022-12-01T06:48:35.647Z,61.44
2022-12-01T06:51:37.065Z,61.06
2022-12-01T06:54:39.552Z,62.41
2022-12-01T06:57:40.905Z,61.60
2022-12-01T07:00:46.372Z,61.61
2022-12-01T07:03:50.920Z,61.53
2022-12-01T07:06:52.350Z,61.88
2022-12-01T07:09:53.791Z,62.05
2022-12-01T07:12:58.405Z,62.13
2022-12-01T07:15:59.870Z,62.52
2022-12-01T07:19:01.316Z,61.82
2022-12-01T07:22:03.071Z,61.36
2022-12-01T07:25:05.123Z,61.13
2022-12-01T07:28:06.604Z,60.95
2022-12-01T07:31:11.000Z,61.76
2022-12-01T07:34:15.873Z,61.58
2022-12-01T07:37:17.482Z,61.33
2022-12-01T07:40:18.968Z,60.65
2022-12-01T07:43:20.423Z,60.79
2022-12-01T07:46:24.751Z,60.81
2022-12-01T07:49:26.444Z,60.43
2022-12-01T07:52:27.839Z,61.19
2022-12-01T07:55:29.226Z,60.90
2022-12-01T07:58:31.099Z,61.16
2022-12-01T08:01:32.504Z,60.59
2022-12-01T08:04:34.021Z,61.55
2022-12-01T08:07:35.447Z,60.91
2022-12-01T08:10:37.064Z,60.76
2022-12-01T08:13:39.231Z,60.91
2022-12-01T08:16:40.640Z,60.72
2022-12-01T08:19:42.043Z,60.92
2022-12-01T08:22:43.489Z,60.34
2022-12-01T08:25:44.868Z,61.71
2022-12-01T08:28:47.093Z,61.00
2022-12-01T08:31:49.035Z,61.38
2022-12-01T08:34:53.546Z,60.55
2022-12-01T08:37:55.200Z,60.46
2022-12-01T08:41:04.016Z,60.99
2022-12-01T08:44:05.462Z,60.63
2022-12-01T08:47:06.916Z,60.60
2022-12-01T08:50:08.624Z,61.13
2022-12-01T08:53:10.030Z,60.81
2022-12-01T08:56:24.289Z,61.23
2022-12-01T08:59:25.878Z,60.51
2022-12-01T09:02:27.550Z,59.91
2022-12-01T09:05:29.173Z,61.02
2022-12-01T09:08:31.071Z,61.96
2022-12-01T09:11:32.594Z,61.70
2022-12-01T09:14:38.130Z,62.04
2022-12-01T09:17:39.560Z,61.48
2022-12-01T09:20:40.986Z,62.30
2022-12-01T09:23:42.684Z,61.09
2022-12-01T09:26:44.160Z,60.45
2022-12-01T09:29:45.572Z,61.28
2022-12-01T09:32:46.945Z,61.15
2022-12-01T09:35:48.450Z,60.87
2022-12-01T09:38:49.969Z,60.46
2022-12-01T09:41:59.471Z,60.48
2022-12-01T09:45:04.279Z,61.20
2022-12-01T09:48:07.758Z,61.51
2022-12-01T09:51:14.747Z,60.72
2022-12-01T09:54:16.176Z,60.57
2022-12-01T09:57:34.779Z,60.24
2022-12-01T10:00:42.182Z,61.24
2022-12-01T10:03:52.797Z,61.31
2022-12-01T10:07:00.875Z,60.14
2022-12-01T10:10:11.788Z,60.21
2022-12-01T10:13:19.570Z,60.41
2022-12-01T10:16:29.357Z,60.60
2022-12-01T10:19:42.567Z,60.92
2022-12-01T10:23:12.985Z,61.15
2022-12-01T10:26:34.474Z,60.83
2022-12-01T10:29:46.513Z,60.34
2022-12-01T10:32:56.208Z,60.13
2022-12-01T10:35:57.919Z,59.98
2022-12-01T10:39:00.595Z,60.03
2022-12-01T10:42:15.011Z,60.72
2022-12-01T10:45:25.670Z,60.94
2022-12-01T10:48:27.182Z,61.29
2022-12-01T10:51:28.721Z,61.69
2022-12-01T10:54:36.360Z,61.39
2022-12-01T10:57:37.938Z,61.41
2022-12-01T11:04:20.993Z,61.71
2022-12-01T11:07:34.663Z,61.75
2022-12-01T11:10:37.216Z,62.49
2022-12-01T11:13:42.052Z,61.96
2022-12-01T11:16:49.970Z,62.43
2022-12-01T11:19:52.234Z,61.65
2022-12-01T11:23:30.664Z,61.11
2022-12-01T11:26:34.566Z,61.06
2022-12-01T11:29:38.128Z,61.11
2022-12-01T11:32:39.919Z,61.33
2022-12-01T11:35:47.753Z,60.80
2022-12-01T11:38:50.687Z,61.62
2022-12-01T11:41:56.679Z,61.24
2022-12-01T11:45:25.796Z,61.23
2022-12-01T11:48:29.676Z,61.70
2022-12-01T11:51:37.874Z,61.88
2022-12-01T11:54:55.383Z,62.07
2022-12-01T11:58:03.820Z,61.15
2022-12-01T12:01:22.016Z,61.43
2022-12-01T12:04:52.188Z,61.71
2022-12-01T12:08:15.642Z,62.03
2022-12-01T12:11:34.734Z,61.13
2022-12-01T12:15:01.114Z,61.19
2022-12-01T12:18:47.286Z,60.66
2022-12-01T12:22:03.911Z,60.69
2022-12-01T12:25:29.018Z,61.11
2022-12-01T12:28:46.580Z,61.58
2022-12-01T12:32:14.155Z,62.29
2022-12-01T12:35:43.876Z,61.60
2022-12-01T12:38:57.660Z,60.30
2022-12-01T12:42:05.789Z,61.23
2022-12-01T12:45:27.927Z,61.30
2022-12-01T12:49:12.121Z,60.83
2022-12-01T12:52:23.547Z,60.82
2022-12-01T12:55:37.361Z,60.29
2022-12-01T12:58:47.356Z,61.67
2022-12-01T13:02:01.244Z,61.57
2022-12-01T13:05:12.576Z,60.88
2022-12-01T13:08:20.279Z,62.06
2022-12-01T13:11:27.580Z,61.02
2022-12-01T13:14:38.092Z,60.64
2022-12-01T13:19:04.867Z,60.19
2022-12-01T13:22:08.161Z,60.33
2022-12-01T13:25:13.615Z,61.06
2022-12-01T13:28:22.635Z,60.72
2022-12-01T13:31:24.411Z,60.51
2022-12-01T13:34:47.376Z,60.94
2022-12-01T13:37:49.087Z,61.60
2022-12-01T13:41:21.265Z,60.98
2022-12-01T13:44:26.349Z,60.62
2022-12-01T13:47:38.611Z,61.26
2022-12-01T13:50:43.686Z,61.05
2022-12-01T13:54:06.193Z,62.00
2022-12-01T13:57:13.804Z,60.87
2022-12-01T14:00:21.570Z,62.23
2022-12-01T14:03:22.984Z,61.75
2022-12-01T14:06:50.685Z,62.49
2022-12-01T14:10:07.182Z,62.39
2022-12-01T14:13:19.004Z,62.29
2022-12-01T14:16:21.128Z,61.70
2022-12-01T14:19:36.708Z,61.97
2022-12-01T14:22:44.358Z,62.11
2022-12-01T14:26:15.822Z,61.78
2022-12-01T14:29:42.378Z,61.41
2022-12-01T14:32:43.828Z,61.82
2022-12-01T14:35:45.685Z,62.28
2022-12-01T14:38:49.861Z,61.59
2022-12-01T14:42:00.231Z,62.36
2022-12-01T14:45:03.691Z,62.83
2022-12-01T14:48:09.841Z,62.28
2022-12-01T14:51:20.835Z,61.41
2022-12-01T14:54:34.771Z,62.18
2022-12-01T14:57:49.523Z,62.17
2022-12-01T15:01:23.985Z,61.69
2022-12-01T15:04:26.053Z,61.39
2022-12-01T15:07:27.597Z,61.14
2022-12-01T15:10:35.307Z,62.23
2022-12-01T15:13:53.224Z,62.13
2022-12-01T15:16:54.759Z,61.78
2022-12-01T15:19:56.214Z,62.46
2022-12-01T15:22:58.560Z,61.91
2022-12-01T15:26:00.699Z,62.17
2022-12-01T15:29:28.256Z,61.33
2022-12-01T15:32:31.668Z,61.50
2022-12-01T15:35:33.599Z,61.83
2022-12-01T15:38:37.812Z,61.36
2022-12-01T15:41:43.096Z,61.28
2022-12-01T15:44:44.679Z,61.51
2022-12-01T15:47:48.941Z,61.32
2022-12-01T15:51:08.797Z,61.01
2022-12-01T15:54:23.154Z,61.32
2022-12-01T15:57:24.626Z,62.44
2022-12-01T16:00:27.304Z,62.73
2022-12-01T16:03:30.451Z,61.97
2022-12-01T16:06:34.881Z,61.45
2022-12-01T16:09:38.814Z,61.76
2022-12-01T16:12:40.220Z,61.28
2022-12-01T16:15:44.797Z,62.38
2022-12-01T16:18:57.523Z,62.16
2022-12-01T16:22:05.080Z,62.95
2022-12-01T16:25:06.872Z,62.15
2022-12-01T16:28:31.020Z,61.87
2022-12-01T16:31:32.649Z,62.52
2022-12-01T16:34:46.021Z,62.55
2022-12-01T16:37:48.090Z,61.94
2022-12-01T16:40:51.914Z,61.88
2022-12-01T16:44:20.326Z,62.35
2022-12-01T16:47:19.124Z,61.82
2022-12-01T16:50:22.377Z,62.42
2022-12-01T16:53:23.796Z,62.67
2022-12-01T16:56:25.187Z,62.55
2022-12-01T16:59:26.691Z,62.51
2022-12-01T17:02:28.194Z,63.15
2022-12-01T17:05:29.720Z,62.65
2022-12-01T17:08:31.454Z,61.82
2022-12-01T17:11:33.070Z,61.52
2022-12-01T17:14:35.912Z,61.67
2022-12-01T17:17:38.579Z,62.66
2022-12-01T17:20:40.036Z,62.27
2022-12-01T17:23:41.494Z,61.78
2022-12-01T17:26:42.949Z,61.24
2022-12-01T17:29:46.339Z,61.61
2022-12-01T17:32:48.046Z,61.35
2022-12-01T17:35:49.862Z,62.08
2022-12-01T17:38:51.397Z,61.85
2022-12-01T17:41:56.271Z,62.49
2022-12-01T17:44:57.777Z,62.76
2022-12-01T17:47:59.288Z,63.04
2022-12-01T17:51:00.682Z,62.86
2022-12-01T17:54:02.159Z,63.96
2022-12-01T17:57:03.866Z,64.14
2022-12-01T18:00:06.688Z,64.05
2022-12-01T18:03:11.139Z,63.48
2022-12-01T18:06:13.255Z,63.49
2022-12-01T18:09:14.697Z,63.28
2022-12-01T18:12:16.116Z,63.25
2022-12-01T18:15:18.132Z,64.12
2022-12-01T18:18:19.777Z,63.68
2022-12-01T18:21:25.070Z,63.79
2022-12-01T18:24:26.532Z,63.11
2022-12-01T18:27:28.899Z,63.33
2022-12-01T18:30:30.887Z,63.85
2022-12-01T18:33:33.504Z,63.03
2022-12-01T18:36:37.305Z,63.73
2022-12-01T18:39:38.968Z,62.97
2022-12-01T18:42:40.382Z,63.18
2022-12-01T18:45:41.840Z,63.80
2022-12-01T18:48:45.827Z,64.06
2022-12-01T18:51:47.218Z,63.40
2022-12-01T18:54:48.872Z,64.17
2022-12-01T18:57:50.446Z,63.22
2022-12-01T19:00:51.887Z,63.28
2022-12-01T19:03:57.699Z,63.83
2022-12-01T19:06:59.208Z,63.28
2022-12-01T19:10:00.757Z,63.61
2022-12-01T19:13:02.187Z,63.57
2022-12-01T19:16:07.030Z,63.36
2022-12-01T19:19:09.606Z,63.69
2022-12-01T19:22:11.021Z,63.01
2022-12-01T19:25:13.420Z,63.57
2022-12-01T19:28:14.794Z,62.55
2022-12-01T19:31:19.285Z,62.72
2022-12-01T19:34:20.904Z,62.48
2022-12-01T19:37:22.426Z,62.84
2022-12-01T19:40:23.799Z,63.39
2022-12-01T19:43:25.253Z,63.57
2022-12-01T19:46:28.612Z,63.92
2022-12-01T19:49:30.150Z,63.53
2022-12-01T19:52:31.538Z,63.85
2022-12-01T19:55:33.010Z,63.59
2022-12-01T19:58:34.808Z,63.74
2022-12-01T20:01:36.408Z,63.66
2022-12-01T20:04:39.475Z,64.13
2022-12-01T20:07:41.083Z,64.06
2022-12-01T20:10:47.786Z,64.77
2022-12-01T20:13:49.247Z,64.16
2022-12-01T20:16:50.764Z,63.84
2022-12-01T20:19:52.257Z,63.83
2022-12-01T20:22:53.734Z,64.17
2022-12-01T20:25:58.875Z,64.08
2022-12-01T20:29:04.224Z,64.24
2022-12-01T20:32:05.875Z,64.44
2022-12-01T20:35:07.580Z,64.95
2022-12-01T20:38:09.141Z,64.94
2022-12-01T20:41:11.094Z,65.00
2022-12-01T20:44:13.385Z,65.39
2022-12-01T20:47:18.337Z,64.87
2022-12-01T20:50:19.732Z,64.99
2022-12-01T20:53:22.289Z,64.85
2022-12-01T20:56:23.694Z,65.25
2022-12-01T20:59:25.640Z,65.31
2022-12-01T21:02:27.190Z,64.79
2022-12-01T21:05:29.067Z,64.87
2022-12-01T21:08:31.623Z,65.61
2022-12-01T21:11:55.482Z,65.69
2022-12-01T21:15:02.887Z,66.29
2022-12-01T21:18:12.315Z,66.18
2022-12-01T21:21:38.715Z,66.97
2022-12-01T21:24:44.016Z,65.93
2022-12-01T21:27:46.859Z,65.85
2022-12-01T21:30:49.487Z,65.20
2022-12-01T21:33:51.026Z,65.28
2022-12-01T21:36:56.074Z,65.74
2022-12-01T21:39:57.573Z,65.39
2022-12-01T21:43:11.367Z,65.78
2022-12-01T21:46:17.767Z,65.53
2022-12-01T21:49:30.551Z,66.03
2022-12-01T21:52:40.941Z,65.80
2022-12-01T21:55:44.596Z,65.73
2022-12-01T21:58:46.204Z,65.58
2022-12-01T22:01:56.427Z,65.98
2022-12-01T22:04:59.331Z,65.50
2022-12-01T22:08:15.253Z,65.78
2022-12-01T22:11:18.538Z,65.09
2022-12-01T22:14:40.231Z,65.58
2022-12-01T22:17:41.705Z,66.38
2022-12-01T22:20:43.096Z,65.91
2022-12-01T22:23:44.806Z,66.65
2022-12-01T22:26:49.197Z,65.93
2022-12-01T22:30:05.723Z,66.38
2022-12-01T22:33:22.608Z,65.86
2022-12-01T22:36:30.191Z,66.24
2022-12-01T22:39:35.874Z,67.20
2022-12-01T22:42:37.458Z,67.15
2022-12-01T22:45:39.280Z,67.04
2022-12-01T22:48:44.088Z,67.55
2022-12-01T22:51:50.847Z,68.24
2022-12-01T22:54:52.518Z,67.79
2022-12-01T22:57:54.982Z,67.86
2022-12-01T23:01:02.268Z,67.98
2022-12-01T23:04:21.095Z,68.39
2022-12-01T23:07:41.308Z,68.69
2022-12-01T23:10:42.845Z,68.12
2022-12-01T23:13:44.259Z,67.40
2022-12-01T23:16:45.734Z,68.27
2022-12-01T23:19:49.687Z,68.45
2022-12-01T23:22:56.648Z,69.67
2022-12-01T23:25:58.738Z,68.31
2022-12-01T23:29:01.252Z,68.04
2022-12-01T23:32:02.755Z,68.10
2022-12-01T23:35:05.799Z,68.36
2022-12-01T23:38:18.076Z,68.31
2022-12-01T23:41:38.924Z,68.30
2022-12-01T23:44:45.382Z,68.14
2022-12-01T23:47:47.408Z,68.64
2022-12-01T23:50:54.250Z,69.25
2022-12-01T23:54:00.446Z,68.22
2022-12-01T23:57:10.203Z,68.68
